Time;durP1;ratioP1;P1;durP2;ratioP2;P2;SDS_P1;SDS_P2;PMS_P1;PMS_P2;Temp;Humidity;BMP_temperature;BMP_pressure;BME280_temperature;BME280_humidity;BME280_pressure;Samples;Min_cycle;Max_cycle;Signal;HPM_P1;HPM_P2
2023/04/09 05:00:54;;;;;;;;;19.33;16.33;;;;;12.01;52.29;66799.94;5663275;23;45233;-86
2023/04/09 05:03:19;;;;;;;;;19.00;17.67;;;;;11.93;52.36;66782.72;4958796;28;46453;-86
2023/04/09 05:05:45;;;;;;;;;18.33;18.00;;;;;11.49;52.44;66772.53;4959104;28;45384;-86
2023/04/09 05:08:10;;;;;;;;;20.67;18.33;;;;;11.98;52.18;66783.22;4958989;28;45389;-86
2023/04/09 05:10:36;;;;;;;;;21.33;20.33;;;;;11.92;52.26;66864.25;4958326;28;45887;-86
2023/04/09 05:13:01;;;;;;;;;26.00;23.67;;;;;11.73;52.30;66685.94;4941119;28;47971;-86
2023/04/09 05:15:26;;;;;;;;;19.00;17.00;;;;;11.81;52.52;66717.00;4958432;28;53328;-86
2023/04/09 05:17:52;;;;;;;;;23.67;21.00;;;;;11.93;52.54;66740.34;4950360;28;45286;-87
2023/04/09 05:20:17;;;;;;;;;22.67;19.67;;;;;11.86;52.39;66745.47;4940528;28;45526;-86
2023/04/09 05:22:42;;;;;;;;;20.33;16.67;;;;;11.85;52.54;66739.59;4938877;28;46040;-86
2023/04/09 05:25:09;;;;;;;;;18.33;18.33;;;;;11.89;52.43;66672.16;4938878;28;47533;-87
2023/04/09 05:27:34;;;;;;;;;20.67;20.00;;;;;11.80;52.41;66657.59;4953466;28;45432;-86
2023/04/09 05:30:00;;;;;;;;;21.33;21.33;;;;;11.87;53.00;66636.00;4958632;28;45404;-86
2023/04/09 05:32:25;;;;;;;;;20.33;18.67;;;;;11.85;52.76;66676.03;4949787;28;45960;-86
2023/04/09 05:34:50;;;;;;;;;18.33;16.33;;;;;11.62;52.65;66591.75;4938884;28;45424;-86
2023/04/09 05:37:16;;;;;;;;;20.00;18.00;;;;;11.82;52.67;66554.00;4938903;28;45352;-88
2023/04/09 05:39:41;;;;;;;;;16.67;15.67;;;;;11.81;52.91;66544.88;4953897;28;45615;-84
2023/04/09 05:42:06;;;;;;;;;21.67;21.33;;;;;11.81;52.84;66539.00;4955621;28;46983;-85
2023/04/09 05:44:32;;;;;;;;;16.67;16.67;;;;;11.81;52.77;66494.00;4955209;28;46051;-85
2023/04/09 05:46:57;;;;;;;;;23.00;20.00;;;;;11.75;53.01;66450.59;4957173;28;45534;-86
2023/04/09 05:49:23;;;;;;;;;20.00;17.67;;;;;11.66;53.03;66349.59;4955139;28;45427;-86
2023/04/09 05:51:49;;;;;;;;;23.33;20.33;;;;;11.67;53.15;66387.81;4956535;28;45428;-87
2023/04/09 05:54:14;;;;;;;;;19.00;18.00;;;;;11.84;53.00;66407.44;4952499;28;45684;-87
2023/04/09 05:56:41;;;;;;;;;17.67;17.33;;;;;11.67;53.33;66406.94;4943005;28;45423;-87
2023/04/09 05:59:07;;;;;;;;;21.33;19.00;;;;;11.76;53.39;66400.84;4952554;28;45503;-87
2023/04/09 06:01:32;;;;;;;;;15.33;15.33;;;;;11.87;52.90;66368.56;4960015;28;46378;-92
2023/04/09 06:03:58;;;;;;;;;18.67;17.33;;;;;11.79;52.98;66369.88;4957437;28;45424;-94
2023/04/09 06:06:23;;;;;;;;;25.33;20.33;;;;;11.72;53.25;66306.22;4946102;28;46969;-90
2023/04/09 06:08:48;;;;;;;;;18.67;15.67;;;;;11.88;52.84;66314.09;4953598;28;45541;-93
2023/04/09 06:11:14;;;;;;;;;17.67;15.67;;;;;11.86;53.03;66255.59;4958034;28;50195;-90
2023/04/09 06:13:40;;;;;;;;;20.00;18.33;;;;;11.96;53.14;66278.28;4957589;28;45373;-92
2023/04/09 06:16:07;;;;;;;;;20.67;20.67;;;;;11.77;53.23;66180.19;4957054;28;46927;-92
2023/04/09 06:18:32;;;;;;;;;26.33;21.33;;;;;11.85;52.81;66220.59;4953776;28;45401;-91
2023/04/09 06:21:01;;;;;;;;;24.67;19.33;;;;;11.74;52.90;66208.50;4940436;28;46328;-90
2023/04/09 06:23:27;;;;;;;;;22.33;19.33;;;;;12.01;53.03;66201.94;4957545;28;45409;-92
2023/04/09 06:25:52;;;;;;;;;25.00;24.67;;;;;11.99;53.07;66199.63;4950084;28;45564;-92
2023/04/09 06:28:17;;;;;;;;;21.67;19.33;;;;;11.85;52.87;66112.03;4937289;23;45593;-90
2023/04/09 06:30:42;;;;;;;;;22.67;20.67;;;;;11.92;52.96;66104.22;4919188;28;61651;-93
2023/04/09 06:33:08;;;;;;;;;24.00;22.00;;;;;11.83;53.28;66030.31;4920313;28;45305;-92
2023/04/09 06:35:33;;;;;;;;;26.00;21.33;;;;;12.08;53.21;66095.53;4945347;28;45421;-91
2023/04/09 06:37:59;;;;;;;;;27.67;26.00;;;;;11.96;53.37;66016.13;4935571;28;45242;-91
2023/04/09 06:40:24;;;;;;;;;24.67;21.00;;;;;12.10;53.04;66079.25;4930974;28;45323;-92
2023/04/09 06:42:50;;;;;;;;;25.33;23.00;;;;;12.07;53.04;66067.88;4939094;28;45238;-92
2023/04/09 06:45:15;;;;;;;;;26.67;25.33;;;;;12.15;53.01;66013.50;4937826;28;45328;-89
2023/04/09 06:47:41;;;;;;;;;28.67;27.00;;;;;12.13;52.99;66045.63;4928602;28;45432;-90
2023/04/09 06:50:07;;;;;;;;;30.00;27.33;;;;;11.92;53.63;65722.34;4935129;28;45927;-90
2023/04/09 06:52:32;;;;;;;;;40.75;29.75;;;;;11.80;53.48;65756.84;4929500;28;45512;-89
2023/04/09 06:54:58;;;;;;;;;38.25;31.50;;;;;11.77;53.18;65727.50;4930245;28;45782;-92
2023/04/09 06:57:25;;;;;;;;;35.75;32.00;;;;;12.20;53.36;65727.28;4937110;28;45406;-91
2023/04/09 06:59:50;;;;;;;;;31.00;25.00;;;;;11.84;53.18;65729.63;4942347;28;45547;-90
2023/04/09 07:02:16;;;;;;;;;31.33;29.67;;;;;12.10;53.13;65752.91;4933099;28;45435;-90
2023/04/09 07:04:41;;;;;;;;;30.67;30.00;;;;;11.67;53.29;65689.06;4948241;28;45399;-90
2023/04/09 07:07:06;;;;;;;;;22.75;22.00;;;;;11.86;53.33;65625.47;4939283;28;45370;-91
2023/04/09 07:09:32;;;;;;;;;33.67;30.00;;;;;12.11;53.34;65563.38;4936464;28;46958;-91
2023/04/09 07:11:57;;;;;;;;;28.67;27.00;;;;;12.45;53.17;65651.88;4940663;28;45595;-91
2023/04/09 07:14:22;;;;;;;;;37.75;31.00;;;;;12.30;52.99;65610.94;4936107;28;45436;-90
2023/04/09 07:16:47;;;;;;;;;32.67;27.00;;;;;12.20;53.05;65544.50;4931404;28;45377;-90
2023/04/09 07:19:13;;;;;;;;;33.67;29.00;;;;;12.44;53.32;65476.44;4940050;28;45439;-89
2023/04/09 07:21:38;;;;;;;;;31.67;27.67;;;;;12.54;53.18;65341.47;4929304;28;45502;-91
2023/04/09 07:24:04;;;;;;;;;31.00;29.33;;;;;12.60;53.39;65390.13;4935567;28;45414;-94
2023/04/09 07:26:29;;;;;;;;;28.33;25.67;;;;;12.33;53.54;65230.22;4941943;28;45342;-91
2023/04/09 07:28:55;;;;;;;;;26.00;25.67;;;;;12.80;52.85;65325.34;4942044;28;45431;-93
2023/04/09 07:31:20;;;;;;;;;32.00;29.67;;;;;12.84;52.87;65319.28;4942765;28;46895;-90
2023/04/09 07:33:46;;;;;;;;;27.00;24.67;;;;;13.01;52.88;65274.34;4939366;28;45341;-91
2023/04/09 07:36:11;;;;;;;;;22.33;19.00;;;;;12.85;52.93;65105.66;4944469;28;45677;-93
2023/04/09 07:38:36;;;;;;;;;30.67;28.00;;;;;12.82;53.63;64786.22;4943781;28;48458;-91
2023/04/09 07:41:02;;;;;;;;;22.33;20.67;;;;;13.22;53.33;64841.28;4923145;28;46423;-92
2023/04/09 07:43:27;;;;;;;;;30.67;25.33;;;;;12.83;53.25;64559.38;4932426;28;45578;-91
2023/04/09 07:45:53;;;;;;;;;25.67;23.00;;;;;13.08;53.24;64692.94;4938816;28;45415;-91
2023/04/09 07:48:18;;;;;;;;;21.67;20.33;;;;;12.51;53.09;64654.44;4922775;28;45559;-92
2023/04/09 07:50:47;;;;;;;;;29.33;23.33;;;;;13.29;53.06;64808.84;4926809;28;45479;-91
2023/04/09 07:53:12;;;;;;;;;34.67;25.00;;;;;13.33;53.52;64425.47;4921519;28;45463;-90
2023/04/09 07:55:39;;;;;;;;;22.67;18.00;;;;;13.38;53.36;64415.69;4926520;28;45282;-93
2023/04/09 07:58:05;;;;;;;;;32.00;25.33;;;;;13.06;53.43;64375.13;4939922;28;48110;-91
2023/04/09 08:00:30;;;;;;;;;21.67;19.67;;;;;13.60;53.25;64323.00;4934181;28;45669;-90
2023/04/09 08:02:56;;;;;;;;;19.00;17.33;;;;;13.03;52.97;64242.41;4932599;28;45692;-90
2023/04/09 08:05:22;;;;;;;;;27.67;22.33;;;;;13.08;53.12;64313.72;4955996;28;45909;-91
2023/04/09 08:07:47;;;;;;;;;27.33;25.33;;;;;13.37;53.21;63937.06;4934411;28;45492;-92
2023/04/09 08:10:15;;;;;;;;;21.00;21.00;;;;;13.46;53.26;64138.09;4934342;28;45593;-90
2023/04/09 08:12:40;;;;;;;;;23.00;22.00;;;;;13.07;53.53;63848.59;4931813;28;45411;-91
2023/04/09 08:15:06;;;;;;;;;18.33;16.33;;;;;13.35;53.21;63921.03;4940412;28;45433;-90
2023/04/09 08:17:32;;;;;;;;;22.00;22.00;;;;;12.99;52.99;63636.13;4937336;28;46432;-90
2023/04/09 08:19:57;;;;;;;;;26.33;24.00;;;;;13.28;53.42;63619.41;4930768;28;45471;-91
2023/04/09 08:22:22;;;;;;;;;15.67;15.67;;;;;13.83;52.98;63832.53;4930138;28;45696;-90
2023/04/09 08:24:51;;;;;;;;;26.33;24.00;;;;;13.67;53.22;63792.03;4930046;28;45620;-91
2023/04/09 08:27:17;;;;;;;;;22.00;18.00;;;;;13.58;53.08;63678.00;4934949;28;45507;-91
2023/04/09 08:29:43;;;;;;;;;21.50;21.50;;;;;13.34;52.53;63583.06;4938493;28;45500;-91
2023/04/09 08:32:08;;;;;;;;;20.67;19.00;;;;;13.37;52.71;63546.56;4943676;28;45353;-90
2023/04/09 08:34:34;;;;;;;;;27.67;19.33;;;;;13.71;52.83;63631.34;4959772;28;45357;-90
2023/04/09 08:36:59;;;;;;;;;25.33;22.33;;;;;14.23;52.45;63578.28;4934303;28;46087;-90
2023/04/09 08:39:24;;;;;;;;;18.33;15.67;;;;;14.02;52.60;63407.50;4921167;28;45262;-91
2023/04/09 08:41:50;;;;;;;;;28.33;23.33;;;;;13.86;52.69;63304.94;4935856;28;45338;-91
2023/04/09 08:44:17;;;;;;;;;11.00;11.00;;;;;14.65;52.64;63432.22;4920091;28;45345;-90
2023/04/09 08:46:43;;;;;;;;;30.00;24.67;;;;;14.21;52.38;63400.78;4921183;28;45370;-91
2023/04/09 08:49:09;;;;;;;;;26.67;19.33;;;;;14.68;52.41;63335.09;4920833;28;45324;-90
2023/04/09 08:51:35;;;;;;;;;17.33;16.00;;;;;14.70;52.42;63310.72;4919917;28;45279;-91
2023/04/09 08:54:01;;;;;;;;;21.67;19.00;;;;;14.95;52.57;63265.31;4919907;28;45528;-91
2023/04/09 08:56:27;;;;;;;;;19.00;18.33;;;;;14.49;52.21;63115.47;4923390;28;47419;-90
2023/04/09 08:58:54;;;;;;;;;41.33;31.00;;;;;14.87;52.33;63238.47;4929308;28;45474;-90
2023/04/09 09:01:27;;;;;;;;;24.67;23.00;;;;;15.14;52.03;63208.50;4944564;28;45423;-91
2023/04/09 09:04:00;;;;;;;;;20.67;20.67;;;;;15.19;52.12;63121.44;4943614;28;45234;-90
2023/04/09 09:06:31;;;;;;;;;21.33;17.00;;;;;15.27;51.96;63100.41;4938475;28;45324;-90
2023/04/09 09:09:11;;;;;;;;;18.00;16.00;;;;;15.37;51.55;63049.59;4931588;28;45477;-91
2023/04/09 09:11:44;;;;;;;;;15.33;15.33;;;;;15.38;51.91;62947.50;4927394;28;45424;-90
2023/04/09 09:14:13;;;;;;;;;22.00;19.67;;;;;15.50;51.70;62807.81;4926667;28;44859;-91
2023/04/09 09:16:44;;;;;;;;;22.67;19.00;;;;;15.64;51.58;62639.44;4928522;28;48274;-90
2023/04/09 09:19:29;;;;;;;;;21.33;17.67;;;;;15.30;51.38;62566.31;4925397;28;44970;-91
2023/04/09 09:22:00;;;;;;;;;20.00;18.00;;;;;15.62;51.44;62549.44;4942990;28;45297;-90
2023/04/09 09:24:26;;;;;;;;;22.00;18.33;;;;;15.67;51.21;62365.38;4925357;28;45541;-87
2023/04/09 09:26:53;;;;;;;;;28.33;22.00;;;;;15.14;50.43;63004.25;4918653;28;48049;-89
2023/04/09 09:29:19;;;;;;;;;21.67;17.67;;;;;15.24;50.55;62889.63;4918625;28;45279;-87
2023/04/09 09:31:48;;;;;;;;;22.00;19.00;;;;;15.96;50.10;63117.91;4920482;28;45391;-88
2023/04/09 09:34:19;;;;;;;;;20.33;18.00;;;;;15.70;50.48;62837.06;4920765;28;45420;-87
2023/04/09 09:36:45;;;;;;;;;15.67;15.33;;;;;16.59;50.38;62714.00;4919406;28;48131;-89
2023/04/09 09:39:12;;;;;;;;;18.00;16.67;;;;;16.66;50.14;62527.00;4924419;28;45458;-89
2023/04/09 09:41:41;;;;;;;;;17.33;17.00;;;;;16.44;50.11;62250.00;4922549;28;45361;-87
2023/04/09 09:44:07;;;;;;;;;16.00;14.67;;;;;16.70;49.37;62079.75;4922554;28;45412;-87
2023/04/09 09:46:35;;;;;;;;;24.67;19.00;;;;;17.24;48.53;62184.91;4919167;28;48298;-87
2023/04/09 09:49:00;;;;;;;;;28.00;21.67;;;;;17.81;48.05;62034.38;4919681;28;45274;-87
2023/04/09 09:51:27;;;;;;;;;18.67;15.67;;;;;18.76;48.19;61446.69;4918596;28;45358;-87
2023/04/09 09:53:55;;;;;;;;;14.00;11.33;;;;;19.15;47.51;61160.78;4920217;28;45318;-87
2023/04/09 09:56:24;;;;;;;;;14.00;11.00;;;;;19.18;47.43;60046.25;4926385;28;46198;-87
2023/04/09 09:59:12;;;;;;;;;7.33;7.33;;;;;20.54;45.82;59846.66;4921806;28;45395;-87
2023/04/09 10:01:39;;;;;;;;;8.67;8.67;;;;;21.60;44.91;60896.69;4927886;28;45364;-88
2023/04/09 10:04:12;;;;;;;;;10.33;9.00;;;;;22.78;42.91;62554.78;4922286;28;45527;-88
2023/04/09 10:06:41;;;;;;;;;12.00;10.67;;;;;23.58;42.66;62405.16;4923139;28;46238;-88
2023/04/09 10:09:07;;;;;;;;;9.00;8.33;;;;;23.73;42.40;63305.13;4953393;28;45852;-88
2023/04/09 10:11:35;;;;;;;;;8.00;7.00;;;;;24.49;39.82;66019.13;4937217;28;45437;-88
2023/04/09 10:14:01;;;;;;;;;6.33;5.67;;;;;24.68;38.64;67045.53;4938973;28;45471;-88
2023/04/09 10:16:27;;;;;;;;;6.33;5.67;;;;;24.04;39.84;66824.38;4938345;28;45774;-88
2023/04/09 10:18:55;;;;;;;;;6.00;4.67;;;;;25.27;37.45;67964.22;4938456;28;45402;-88
2023/04/09 10:21:44;;;;;;;;;7.00;5.33;;;;;25.68;36.39;68146.34;4931635;28;45499;-88
2023/04/09 10:24:10;;;;;;;;;7.33;4.67;;;;;26.14;36.36;68670.63;4922417;28;45301;-88
2023/04/09 10:26:39;;;;;;;;;7.33;6.00;;;;;26.65;36.44;68859.78;4938419;28;45480;-88
2023/04/09 10:29:12;;;;;;;;;5.33;5.33;;;;;26.91;35.09;69182.44;4938385;28;45630;-88
2023/04/09 10:31:51;;;;;;;;;5.67;4.67;;;;;26.90;33.30;69347.41;4923976;28;45294;-88
2023/04/09 10:34:19;;;;;;;;;6.00;4.67;;;;;27.62;34.47;69536.63;4923475;28;45378;-88
2023/04/09 10:36:51;;;;;;;;;5.33;5.33;;;;;27.83;33.67;69633.88;4922772;28;46443;-88
2023/04/09 10:39:17;;;;;;;;;6.33;5.33;;;;;27.51;33.38;69653.94;4921311;28;45414;-88
2023/04/09 10:41:45;;;;;;;;;7.67;5.33;;;;;27.88;32.23;69816.56;4921182;28;45541;-88
2023/04/09 10:44:21;;;;;;;;;4.67;4.67;;;;;28.52;30.85;69782.50;4940080;28;47106;-88
2023/04/09 10:46:47;;;;;;;;;3.00;3.00;;;;;28.64;30.08;69905.09;4941752;28;45500;-89
2023/04/09 10:49:18;;;;;;;;;3.00;2.33;;;;;29.15;30.54;69883.22;4941573;28;45348;-88
2023/04/09 10:51:51;;;;;;;;;4.00;4.00;;;;;29.41;30.96;69985.19;4943574;28;45435;-88
2023/04/09 10:54:32;;;;;;;;;4.00;4.00;;;;;29.71;29.30;69856.31;4943839;28;45491;-88
2023/04/09 10:57:06;;;;;;;;;9.00;7.67;;;;;29.95;26.28;69733.81;4943642;28;45361;-88
2023/04/09 10:59:35;;;;;;;;;4.00;4.00;;;;;30.04;27.17;69752.69;4947763;28;45321;-89
2023/04/09 11:02:01;;;;;;;;;6.00;3.00;;;;;29.89;26.91;69689.06;4954078;28;45587;-89
2023/04/09 11:04:40;;;;;;;;;7.00;5.33;;;;;30.12;27.96;69666.75;4927673;28;45437;-89
2023/04/09 11:07:07;;;;;;;;;3.33;3.33;;;;;29.91;27.31;69696.31;4922542;28;46068;-89
2023/04/09 11:09:36;;;;;;;;;2.33;2.33;;;;;29.78;28.26;69722.28;4924745;28;45520;-89
2023/04/09 11:12:02;;;;;;;;;4.67;2.67;;;;;29.85;28.35;69772.16;4942676;28;45450;-89
2023/04/09 11:14:28;;;;;;;;;3.25;3.25;;;;;29.74;27.73;69747.53;4941121;28;45414;-89
2023/04/09 11:16:53;;;;;;;;;1.00;1.00;;;;;29.67;27.19;69636.19;4941201;28;45765;-89
2023/04/09 11:19:22;;;;;;;;;2.00;2.00;;;;;29.72;26.92;69644.84;4941561;28;45438;-89
2023/04/09 11:21:47;;;;;;;;;3.33;2.67;;;;;29.89;27.39;69631.78;4941622;28;45388;-89
2023/04/09 11:24:13;;;;;;;;;4.33;4.00;;;;;30.09;26.17;69567.72;4941908;28;45290;-89
2023/04/09 11:26:39;;;;;;;;;3.67;2.33;;;;;29.91;26.28;69559.94;4939530;28;46498;-89
2023/04/09 11:29:08;;;;;;;;;2.33;2.33;;;;;29.33;26.41;69634.41;4945517;28;45397;-88
2023/04/09 11:31:34;;;;;;;;;4.67;2.00;;;;;28.87;26.26;69507.88;4941874;28;45372;-89
2023/04/09 11:34:00;;;;;;;;;2.33;2.33;;;;;28.64;26.33;69499.56;4941475;28;45353;-89
2023/04/09 11:36:28;;;;;;;;;3.00;3.00;;;;;28.73;27.15;69559.84;4940831;28;45315;-88
2023/04/09 11:38:54;;;;;;;;;4.33;3.33;;;;;28.37;26.42;69485.50;4928657;28;45502;-89
2023/04/09 11:41:36;;;;;;;;;7.67;5.00;;;;;28.97;26.24;69603.59;4921384;28;45396;-89
2023/04/09 11:44:03;;;;;;;;;6.33;5.00;;;;;29.11;27.42;69628.44;4922014;28;45428;-89
2023/04/09 11:46:39;;;;;;;;;4.00;4.00;;;;;28.60;25.20;69432.78;4936260;28;48118;-89
2023/04/09 11:49:05;;;;;;;;;5.00;4.00;;;;;28.78;25.84;69478.69;4921634;28;45537;-89
2023/04/09 11:51:31;;;;;;;;;9.67;7.67;;;;;28.52;25.47;69483.16;4920137;28;45424;-89
2023/04/09 11:54:07;;;;;;;;;3.33;3.33;;;;;29.24;25.62;69537.69;4921565;28;45499;-89
2023/04/09 11:56:35;;;;;;;;;4.00;4.00;;;;;29.41;25.96;69562.78;4927533;28;46255;-89
2023/04/09 11:59:00;;;;;;;;;4.00;2.33;;;;;28.72;26.63;69430.13;4941923;28;45416;-89
2023/04/09 12:01:31;;;;;;;;;7.00;7.00;;;;;28.68;26.48;69504.31;4930826;28;46456;-89
2023/04/09 12:03:56;;;;;;;;;7.00;5.67;;;;;28.71;25.04;69426.22;4927568;28;45437;-89
2023/04/09 12:06:23;;;;;;;;;4.33;4.33;;;;;28.41;25.80;69438.56;4919903;28;47058;-89
2023/04/09 12:08:56;;;;;;;;;4.00;4.00;;;;;27.99;26.15;69523.06;4921425;28;45444;-89
2023/04/09 12:11:31;;;;;;;;;3.33;3.33;;;;;28.08;26.60;69462.47;4921122;28;45409;-89
2023/04/09 12:14:04;;;;;;;;;3.00;3.00;;;;;28.55;26.80;69596.16;4921535;28;45430;-88
2023/04/09 12:16:34;;;;;;;;;8.33;6.33;;;;;28.62;26.76;69584.84;4921242;28;45532;-88
2023/04/09 12:19:05;;;;;;;;;9.00;7.33;;;;;28.59;26.14;69505.09;4921051;28;45370;-89
2023/04/09 12:21:46;;;;;;;;;6.67;4.67;;;;;29.03;26.24;69589.53;4934029;28;45475;-89
2023/04/09 12:24:12;;;;;;;;;5.67;5.00;;;;;29.28;26.55;69595.75;4940817;28;45407;-89
2023/04/09 12:26:37;;;;;;;;;4.67;3.33;;;;;29.58;26.14;69554.56;4940060;28;45381;-89
2023/04/09 12:29:03;;;;;;;;;5.00;5.00;;;;;29.81;25.63;69578.63;4941527;28;46071;-89
2023/04/09 12:31:28;;;;;;;;;5.00;5.00;;;;;28.85;25.78;69475.53;4943472;28;45397;-89
2023/04/09 12:33:56;;;;;;;;;6.00;5.00;;;;;29.08;25.10;69420.00;4939156;28;45634;-89
2023/04/09 12:36:25;;;;;;;;;4.67;4.33;;;;;29.43;25.46;69474.63;5197362;23;45770;-89
2023/04/09 12:38:50;;;;;;;;;7.00;6.67;;;;;29.73;25.46;69457.91;4957108;28;45410;-89
2023/04/09 12:41:16;;;;;;;;;4.00;4.00;;;;;30.09;25.29;69434.66;4955060;28;45555;-89
2023/04/09 12:43:44;;;;;;;;;5.00;4.00;;;;;30.70;26.00;69540.22;4958455;28;45598;-89
2023/04/09 12:46:10;;;;;;;;;5.33;3.33;;;;;31.03;25.90;69491.47;4941897;28;47812;-89
2023/04/09 12:48:35;;;;;;;;;4.00;4.00;;;;;31.46;25.55;69472.41;4959020;28;45371;-89
2023/04/09 12:51:01;;;;;;;;;5.00;5.00;;;;;31.69;24.63;69434.06;4959458;28;45457;-89
2023/04/09 12:53:27;;;;;;;;;3.00;3.00;;;;;31.89;24.40;69360.84;4958411;28;46121;-89
2023/04/09 12:55:52;;;;;;;;;7.00;5.33;;;;;31.99;24.89;69364.53;4943870;28;46036;-90
2023/04/09 12:58:18;;;;;;;;;6.00;6.00;;;;;32.05;24.73;69390.78;4941732;28;45334;-89
2023/04/09 13:00:43;;;;;;;;;1.67;1.67;;;;;32.06;23.70;69243.63;4925080;28;45321;-89
2023/04/09 13:03:08;;;;;;;;;3.67;3.67;;;;;32.48;24.10;69294.84;4960796;28;45405;-90
2023/04/09 13:05:34;;;;;;;;;4.00;4.00;;;;;32.47;23.42;69203.88;4958240;28;46163;-89
2023/04/09 13:08:01;;;;;;;;;4.00;4.00;;;;;32.14;23.36;69168.25;4958948;28;45660;-89
2023/04/09 13:10:26;;;;;;;;;6.67;6.67;;;;;32.50;22.80;69223.28;4957270;28;45343;-89
2023/04/09 13:12:52;;;;;;;;;5.33;5.33;;;;;32.26;22.48;69214.66;4958123;28;45462;-89
2023/04/09 13:15:17;;;;;;;;;4.00;3.33;;;;;31.91;22.82;69210.03;4957805;28;46647;-89
2023/04/09 13:17:42;;;;;;;;;6.00;6.00;;;;;31.91;22.24;69339.22;4956014;28;45479;-89
2023/04/09 13:20:08;;;;;;;;;6.33;5.00;;;;;31.98;22.66;69193.13;4957794;28;45464;-89
2023/04/09 13:22:34;;;;;;;;;5.00;5.00;;;;;31.62;22.83;69182.44;4959132;28;45361;-89
2023/04/09 13:25:00;;;;;;;;;6.33;6.00;;;;;31.42;22.69;69221.66;4961891;28;45593;-93
2023/04/09 13:27:25;;;;;;;;;7.67;7.00;;;;;31.21;23.16;69320.34;4966679;28;45234;-93
2023/04/09 13:29:51;;;;;;;;;5.00;5.00;;;;;30.93;23.31;69337.56;4942493;28;45435;-92
2023/04/09 13:32:17;;;;;;;;;4.33;4.33;;;;;30.96;22.66;69367.84;4959748;28;45360;-93
2023/04/09 13:34:42;;;;;;;;;3.00;3.00;;;;;30.28;22.98;69374.19;4958573;28;46569;-92
2023/04/09 13:37:07;;;;;;;;;5.00;5.00;;;;;30.16;23.61;69316.28;4945340;28;45286;-93
2023/04/09 13:39:33;;;;;;;;;4.67;4.67;;;;;29.64;23.74;69362.69;4922205;28;45334;-92
2023/04/09 13:41:59;;;;;;;;;3.00;1.33;;;;;29.63;23.96;69369.69;4922504;28;45460;-93
2023/04/09 13:44:24;;;;;;;;;7.33;4.33;;;;;29.59;24.02;69419.47;4925447;28;47644;-92
2023/04/09 13:46:50;;;;;;;;;5.33;5.33;;;;;29.05;24.06;69370.72;4958523;28;45340;-92
2023/04/09 13:49:15;;;;;;;;;4.67;4.67;;;;;28.71;24.75;69401.72;4941085;28;45397;-92
2023/04/09 13:51:41;;;;;;;;;6.33;5.00;;;;;28.52;24.86;69404.25;4941349;28;45455;-91
2023/04/09 13:54:07;;;;;;;;;4.67;2.67;;;;;28.71;24.45;69464.34;4943160;28;48130;-93
2023/04/09 13:56:33;;;;;;;;;9.00;7.33;;;;;28.46;24.10;69484.16;4962837;28;45463;-91
2023/04/09 13:58:58;;;;;;;;;7.00;6.00;;;;;27.78;24.76;69508.91;4953486;28;45361;-92
2023/04/09 14:01:26;;;;;;;;;6.00;4.33;;;;;27.58;24.93;69426.50;4936501;28;45464;-91
2023/04/09 14:03:51;;;;;;;;;6.33;5.00;;;;;27.20;25.55;69394.88;4948564;28;46094;-92
2023/04/09 14:06:17;;;;;;;;;8.33;8.33;;;;;27.05;25.41;69478.06;4927143;28;45763;-91
2023/04/09 14:08:42;;;;;;;;;2.33;2.33;;;;;26.85;26.10;69444.56;4958621;28;45561;-91
2023/04/09 14:11:09;;;;;;;;;4.00;4.00;;;;;26.27;25.73;69422.78;4941912;28;45318;-92
2023/04/09 14:13:35;;;;;;;;;6.00;6.00;;;;;26.57;25.82;69571.88;4960748;28;46628;-91
2023/04/09 14:16:00;;;;;;;;;5.00;4.00;;;;;26.13;26.26;69531.44;4959900;28;45344;-93
2023/04/09 14:18:25;;;;;;;;;4.00;4.00;;;;;26.43;26.60;69474.38;4958622;28;45690;-92
2023/04/09 14:20:51;;;;;;;;;5.00;5.00;;;;;26.06;26.47;69361.03;4960651;28;45311;-92
2023/04/09 14:23:16;;;;;;;;;3.33;3.33;;;;;25.75;26.48;69370.19;4960820;28;46355;-91
2023/04/09 14:25:43;;;;;;;;;4.33;4.33;;;;;25.67;26.44;69393.75;4965858;28;45751;-91
2023/04/09 14:28:08;;;;;;;;;5.00;4.33;;;;;25.65;26.59;69445.56;4961213;28;45472;-92
2023/04/09 14:30:34;;;;;;;;;6.33;5.00;;;;;25.06;26.74;69363.50;4930945;28;45573;-92
2023/04/09 14:33:00;;;;;;;;;4.00;4.00;;;;;24.72;26.83;69423.66;4952186;28;45545;-92
2023/04/09 14:35:25;;;;;;;;;4.33;4.33;;;;;24.80;27.66;69479.78;4958236;28;45203;-91
2023/04/09 14:37:51;;;;;;;;;6.00;5.00;;;;;24.73;27.36;69392.41;4941433;28;45313;-92
2023/04/09 14:40:16;;;;;;;;;4.00;3.00;;;;;25.03;27.59;69332.88;4941343;28;45506;-91
2023/04/09 14:42:41;;;;;;;;;3.00;3.00;;;;;24.81;27.89;69334.31;4938376;28;47413;-92
2023/04/09 14:45:07;;;;;;;;;4.33;4.33;;;;;24.43;27.68;69301.63;4938815;28;45343;-92
2023/04/09 14:47:32;;;;;;;;;2.67;2.67;;;;;24.30;27.94;69305.06;4943025;28;45244;-92
2023/04/09 14:49:58;;;;;;;;;3.00;3.00;;;;;24.68;28.07;69484.41;4950742;28;45543;-91
2023/04/09 14:52:23;;;;;;;;;5.67;4.33;;;;;24.29;27.87;69330.34;4943921;28;47256;-92
2023/04/09 14:54:49;;;;;;;;;3.00;3.00;;;;;24.39;28.15;69313.09;4966136;28;45444;-92
2023/04/09 14:57:14;;;;;;;;;3.00;3.00;;;;;24.47;27.72;69357.22;4944853;28;45386;-92
2023/04/09 14:59:39;;;;;;;;;3.00;3.00;;;;;24.53;28.00;69388.69;4942607;28;45344;-92
2023/04/09 15:02:05;;;;;;;;;3.00;3.00;;;;;23.45;28.45;69297.44;4941279;28;46898;-92
2023/04/09 15:04:30;;;;;;;;;5.00;3.33;;;;;24.40;28.44;69313.72;4940674;28;45867;-91
2023/04/09 15:06:56;;;;;;;;;4.00;4.00;;;;;24.36;28.33;69423.06;4942055;28;45422;-91
2023/04/09 15:09:21;;;;;;;;;5.00;5.00;;;;;23.72;28.50;69283.72;4959919;28;45557;-91
2023/04/09 15:11:46;;;;;;;;;4.33;4.33;;;;;23.89;28.40;69310.91;4960313;28;46579;-91
2023/04/09 15:14:12;;;;;;;;;2.33;2.00;;;;;23.37;28.06;69170.34;4961531;28;45420;-91
2023/04/09 15:16:37;;;;;;;;;4.33;4.33;;;;;22.99;28.76;69138.63;4962261;28;45496;-91
2023/04/09 15:19:02;;;;;;;;;5.00;2.67;;;;;23.88;28.20;69331.91;4945286;28;45389;-91
2023/04/09 15:21:30;;;;;;;;;3.33;3.33;;;;;23.94;28.59;69314.75;4944439;28;47385;-91
2023/04/09 15:23:57;;;;;;;;;2.33;2.33;;;;;22.83;28.80;69211.88;4964943;28;45549;-88
2023/04/09 15:26:23;;;;;;;;;5.00;5.00;;;;;23.79;28.71;69261.78;4950163;28;45534;-88
2023/04/09 15:28:49;;;;;;;;;3.67;2.00;;;;;23.25;28.97;69320.69;4953899;28;45279;-87
2023/04/09 15:31:14;;;;;;;;;3.67;2.00;;;;;22.67;29.48;69174.56;4940937;28;45407;-88
2023/04/09 15:33:43;;;;;;;;;4.00;4.00;;;;;23.00;28.93;69247.72;4941082;28;45408;-88
2023/04/09 15:36:09;;;;;;;;;3.33;3.33;;;;;22.90;29.30;69207.31;4941261;28;45505;-88
2023/04/09 15:38:34;;;;;;;;;3.67;3.67;;;;;23.24;29.54;69289.22;4943949;28;45349;-88
2023/04/09 15:41:00;;;;;;;;;3.00;3.00;;;;;22.88;29.61;69136.94;4940928;28;45820;-88
2023/04/09 15:43:26;;;;;;;;;5.33;4.00;;;;;23.08;29.77;69265.94;4940773;28;45278;-88
2023/04/09 15:45:51;;;;;;;;;2.33;2.33;;;;;23.07;29.39;69194.63;4940951;28;45322;-88
2023/04/09 15:48:18;;;;;;;;;4.00;3.00;;;;;23.19;29.59;69264.97;4941322;28;45337;-88
2023/04/09 15:50:43;;;;;;;;;2.00;2.00;;;;;22.67;29.83;69153.00;4940510;28;46672;-88
2023/04/09 15:53:09;;;;;;;;;3.67;2.33;;;;;22.48;29.85;69090.56;4943574;28;45311;-88
2023/04/09 15:55:34;;;;;;;;;8.33;3.00;;;;;22.63;30.01;69212.91;4942561;28;45534;-88
2023/04/09 15:58:00;;;;;;;;;4.67;4.00;;;;;23.10;30.15;69300.09;4944902;28;45539;-87
2023/04/09 16:00:26;;;;;;;;;4.00;4.00;;;;;23.12;30.04;69303.09;4942450;28;48073;-88
2023/04/09 16:02:52;;;;;;;;;4.33;3.00;;;;;22.55;30.25;69276.78;4959500;28;45440;-88
2023/04/09 16:05:17;;;;;;;;;5.00;5.00;;;;;22.99;30.20;69262.72;4958546;28;45634;-87
2023/04/09 16:07:43;;;;;;;;;2.33;2.33;;;;;22.93;30.29;69280.41;4959212;28;45434;-88
2023/04/09 16:10:08;;;;;;;;;5.00;4.00;;;;;22.49;30.44;69194.16;4959858;28;45566;-88
2023/04/09 16:12:34;;;;;;;;;3.67;3.67;;;;;22.42;31.05;69234.91;4959877;28;45426;-88
2023/04/09 16:14:59;;;;;;;;;6.00;4.00;;;;;22.51;31.16;69218.69;4942657;28;45353;-88
2023/04/09 16:17:24;;;;;;;;;4.33;4.00;;;;;22.37;31.18;69323.28;4956695;28;46125;-88
2023/04/09 16:19:50;;;;;;;;;3.00;3.00;;;;;21.92;30.86;69235.78;4958554;28;45452;-88
2023/04/09 16:22:15;;;;;;;;;9.33;4.00;;;;;22.10;31.73;69227.59;4959346;28;45416;-88
2023/04/09 16:24:42;;;;;;;;;6.00;4.00;;;;;22.01;31.45;69216.88;4962089;28;45399;-91